Time;durP1;ratioP1;P1;durP2;ratioP2;P2;SDS_P1;SDS_P2;PMS_P1;PMS_P2;Temp;Humidity;BMP_temperature;BMP_pressure;BME280_temperature;BME280_humidity;BME280_pressure;Samples;Min_cycle;Max_cycle;Signal;HPM_P1;HPM_P2
2021/08/02 00:01:43;;;;;;;10.13;2.72;;;14.80;75.10;;;;;;5086461;28;20067;-75
2021/08/02 00:04:11;;;;;;;;;;;14.70;75.20;;;;;;5087682;28;20390;-74
2021/08/02 00:06:49;;;;;;;7.63;2.97;;;14.70;75.10;;;;;;5089984;28;19920;-74
2021/08/02 00:09:23;;;;;;;10.20;3.97;;;14.70;75.10;;;;;;5067062;28;20055;-75
2021/08/02 00:12:05;;;;;;;8.25;4.13;;;14.60;75.20;;;;;;5089646;28;20059;-74
2021/08/02 00:14:34;;;;;;;12.68;3.95;;;14.60;75.40;;;;;;5085197;28;20044;-75
2021/08/02 00:17:05;;;;;;;7.50;3.40;;;14.60;75.40;;;;;;5086424;28;20414;-76
2021/08/02 00:19:33;;;;;;;81.05;38.28;;;14.50;75.50;;;;;;5086385;28;20047;-75
2021/08/02 00:22:02;;;;;;;91.97;42.55;;;14.50;75.60;;;;;;5081470;28;20518;-75
2021/08/02 00:24:30;;;;;;;76.93;36.90;;;14.50;75.70;;;;;;5090364;28;20048;-75
2021/08/02 00:27:02;;;;;;;14.77;7.07;;;14.40;75.80;;;;;;5089289;28;20040;-75
2021/08/02 00:29:31;;;;;;;9.70;5.43;;;14.40;76.00;;;;;;5089714;28;20040;-75
2021/08/02 00:32:01;;;;;;;9.55;3.55;;;14.30;76.20;;;;;;5085443;28;20044;-75
2021/08/02 00:34:28;;;;;;;10.60;3.13;;;14.30;76.40;;;;;;5087093;28;20062;-75
2021/08/02 00:37:02;;;;;;;9.55;3.25;;;14.30;76.60;;;;;;5087715;28;20052;-75
2021/08/02 00:39:51;;;;;;;7.78;2.88;;;14.20;76.80;;;;;;5089326;28;20036;-75
2021/08/02 00:42:56;;;;;;;10.05;3.22;;;14.20;77.10;;;;;;5086348;28;20048;-75
2021/08/02 00:45:31;;;;;;;8.02;3.15;;;14.10;77.20;;;;;;5086481;28;20410;-76
2021/08/02 00:48:05;;;;;;;6.97;3.00;;;14.10;77.20;;;;;;5088299;28;20047;-75
2021/08/02 00:50:43;;;;;;;3.75;2.63;;;14.00;77.40;;;;;;5088027;28;20044;-75
2021/08/02 00:53:16;;;;;;;6.75;2.83;;;14.00;77.60;;;;;;5086856;28;20048;-75
2021/08/02 00:55:51;;;;;;;12.45;3.50;;;13.90;77.80;;;;;;5070828;28;20422;-75
2021/08/02 00:58:22;;;;;;;7.60;3.28;;;13.90;78.10;;;;;;5089617;28;20963;-75
2021/08/02 01:00:52;;;;;;;3.78;2.97;;;13.90;78.40;;;;;;5085321;28;20040;-76
2021/08/02 01:03:30;;;;;;;6.43;3.05;;;13.90;78.70;;;;;;5086608;28;20052;-75
2021/08/02 01:06:01;;;;;;;5.32;2.92;;;13.90;78.90;;;;;;5091096;28;20055;-75
2021/08/02 01:08:31;;;;;;;8.63;3.30;;;14.00;79.00;;;;;;5093388;28;20040;-76
2021/08/02 01:11:06;;;;;;;5.13;3.08;;;14.00;79.10;;;;;;5092945;28;20047;-76
2021/08/02 01:13:36;;;;;;;5.43;2.70;;;14.00;79.10;;;;;;5093406;28;20035;-75
2021/08/02 01:16:07;;;;;;;5.88;3.03;;;14.00;79.10;;;;;;5091749;28;20044;-77
2021/08/02 01:18:39;;;;;;;5.07;2.90;;;14.00;79.20;;;;;;5093521;28;20063;-74
2021/08/02 01:21:13;;;;;;;6.75;2.85;;;14.00;79.30;;;;;;5091836;28;20052;-74
2021/08/02 01:23:46;;;;;;;5.40;2.92;;;14.10;79.40;;;;;;5092668;28;20048;-75
2021/08/02 01:26:40;;;;;;;5.25;2.90;;;14.20;79.40;;;;;;5093413;28;20044;-75
2021/08/02 01:29:47;;;;;;;4.88;3.17;;;14.20;79.50;;;;;;5090346;28;20040;-75
2021/08/02 01:32:17;;;;;;;5.35;3.17;;;14.20;79.70;;;;;;5089334;28;20036;-75
2021/08/02 01:34:48;;;;;;;11.10;3.67;;;14.20;79.50;;;;;;5069823;28;20051;-75
2021/08/02 01:37:17;;;;;;;5.35;3.15;;;14.20;79.50;;;;;;5093129;28;20051;-75
2021/08/02 01:39:53;;;;;;;6.85;3.35;;;14.20;79.40;;;;;;5094324;28;20059;-75
2021/08/02 01:42:22;;;;;;;10.70;3.75;;;14.20;79.50;;;;;;5086816;28;20522;-75
2021/08/02 01:44:52;;;;;;;7.72;3.20;;;14.20;79.40;;;;;;5087255;28;20047;-75
2021/08/02 01:47:23;;;;;;;5.72;3.03;;;14.20;79.40;;;;;;5089475;28;20048;-75
2021/08/02 01:50:05;;;;;;;6.28;3.15;;;14.10;79.30;;;;;;5075084;28;20052;-75
2021/08/02 01:52:54;;;;;;;4.50;2.92;;;14.10;79.50;;;;;;5086427;28;20471;-74
2021/08/02 01:55:24;;;;;;;5.72;2.80;;;14.10;79.50;;;;;;5084981;28;20048;-74
2021/08/02 01:58:09;;;;;;;6.70;2.85;;;14.00;79.40;;;;;;5084685;28;20109;-74
2021/08/02 02:00:50;;;;;;;6.65;3.40;;;14.00;79.40;;;;;;5089908;28;20387;-77
2021/08/02 02:03:26;;;;;;;5.15;3.58;;;14.00;79.30;;;;;;5075447;28;20402;-75
2021/08/02 02:06:12;;;;;;;7.85;3.30;;;14.00;79.30;;;;;;5084909;28;20043;-75
2021/08/02 02:08:56;;;;;;;8.45;3.13;;;14.10;79.30;;;;;;5075150;28;20066;-74
2021/08/02 02:11:28;;;;;;;5.40;2.70;;;14.00;79.20;;;;;;5087410;28;20047;-75
2021/08/02 02:14:07;;;;;;;7.50;2.70;;;14.00;79.10;;;;;;5063113;28;20360;-75
2021/08/02 02:16:40;;;;;;;7.03;2.55;;;14.00;79.10;;;;;;5059368;28;20411;-75
2021/08/02 02:19:09;;;;;;;9.23;2.85;;;14.00;79.20;;;;;;5082672;28;20040;-75
2021/08/02 02:21:39;;;;;;;5.88;2.60;;;14.00;79.20;;;;;;5087331;28;20044;-75
2021/08/02 02:24:10;;;;;;;5.43;2.58;;;13.90;79.30;;;;;;5068768;28;20510;-75
2021/08/02 02:26:41;;;;;;;5.68;2.80;;;13.90;79.40;;;;;;5074671;28;20055;-75
2021/08/02 02:29:11;;;;;;;7.57;2.85;;;13.90;79.50;;;;;;5074550;28;20032;-75
2021/08/02 02:31:42;;;;;;;4.45;2.60;;;13.80;79.60;;;;;;5085743;28;20044;-76
2021/08/02 02:34:12;;;;;;;7.32;2.97;;;13.80;79.80;;;;;;5088454;28;20044;-76
2021/08/02 02:36:44;;;;;;;7.47;3.00;;;13.80;79.90;;;;;;5091592;28;20036;-76
2021/08/02 02:39:15;;;;;;;4.40;2.63;;;13.60;80.10;;;;;;5079310;28;20059;-76
2021/08/02 02:41:45;;;;;;;4.03;2.70;;;13.60;80.30;;;;;;5084593;28;20059;-76
2021/08/02 02:44:17;;;;;;;6.82;2.60;;;13.50;80.50;;;;;;5083865;28;20434;-76
2021/08/02 02:46:46;;;;;;;8.63;2.95;;;13.50;80.70;;;;;;5089540;28;20044;-74
2021/08/02 02:49:20;;;;;;;7.75;2.72;;;13.30;80.80;;;;;;5085906;28;20044;-74
2021/08/02 02:51:50;;;;;;;5.10;2.63;;;13.30;81.00;;;;;;5086234;28;20787;-74
2021/08/02 02:54:21;;;;;;;10.85;3.20;;;13.20;81.20;;;;;;5090906;28;20384;-74
2021/08/02 02:56:54;;;;;;;5.75;2.83;;;13.20;81.40;;;;;;5074249;28;20051;-74
2021/08/02 02:59:25;;;;;;;6.72;3.05;;;13.10;81.50;;;;;;5089847;28;20044;-74
2021/08/02 03:01:54;;;;;;;7.80;3.05;;;13.10;81.60;;;;;;5085944;28;20059;-75
2021/08/02 03:04:31;;;;;;;8.30;3.08;;;13.00;81.80;;;;;;5088394;28;20051;-75
2021/08/02 03:07:01;;;;;;;7.60;2.80;;;13.00;81.90;;;;;;5085678;28;20206;-75
2021/08/02 03:09:34;;;;;;;8.48;2.85;;;13.10;81.90;;;;;;5091363;28;20052;-75
2021/08/02 03:12:05;;;;;;;11.02;2.60;;;13.10;82.00;;;;;;5090254;28;20486;-74
2021/08/02 03:14:34;;;;;;;6.93;2.70;;;13.10;82.00;;;;;;5086444;28;20680;-74
2021/08/02 03:17:06;;;;;;;7.03;3.03;;;13.10;82.00;;;;;;5085832;28;20040;-75
2021/08/02 03:19:35;;;;;;;5.47;2.88;;;13.10;82.00;;;;;;5089535;28;20052;-74
2021/08/02 03:22:16;;;;;;;5.18;3.00;;;13.20;81.90;;;;;;5091649;28;20644;-75
2021/08/02 03:24:46;;;;;;;7.63;2.95;;;13.20;82.00;;;;;;5089756;28;20051;-74
2021/08/02 03:27:21;;;;;;;5.13;2.35;;;13.20;81.90;;;;;;5090489;28;20048;-75
2021/08/02 03:29:50;;;;;;;5.15;2.50;;;13.20;81.90;;;;;;5088039;28;20047;-75
2021/08/02 03:32:20;;;;;;;10.57;2.45;;;13.30;81.80;;;;;;5090700;28;20052;-75
2021/08/02 03:34:55;;;;;;;6.68;2.42;;;13.30;81.80;;;;;;5089399;28;20044;-75
2021/08/02 03:37:26;;;;;;;7.35;2.53;;;13.20;81.70;;;;;;5089208;28;20052;-75
2021/08/02 03:39:58;;;;;;;9.57;2.70;;;13.30;81.70;;;;;;5088273;28;20052;-74
2021/08/02 03:42:26;;;;;;;11.30;2.67;;;13.30;81.60;;;;;;5090719;28;20040;-74
2021/08/02 03:44:54;;;;;;;4.05;2.70;;;13.30;81.60;;;;;;5088057;28;20044;-75
2021/08/02 03:47:23;;;;;;;8.13;2.20;;;13.30;81.60;;;;;;5087093;28;20058;-74
2021/08/02 03:49:51;;;;;;;5.95;2.30;;;13.30;81.40;;;;;;5087373;28;20047;-74
2021/08/02 03:52:19;;;;;;;7.25;2.63;;;13.30;81.30;;;;;;5091487;28;20044;-75
2021/08/02 03:54:47;;;;;;;6.22;2.40;;;13.30;81.30;;;;;;5090263;28;20036;-75
2021/08/02 03:57:15;;;;;;;5.82;2.15;;;13.30;81.30;;;;;;5091397;28;20046;-75
2021/08/02 03:59:44;;;;;;;11.65;2.67;;;13.30;81.20;;;;;;5089085;28;20044;-75
2021/08/02 04:02:11;;;;;;;5.80;2.20;;;13.30;81.20;;;;;;5087165;28;20043;-76
2021/08/02 04:04:39;;;;;;;7.18;2.65;;;13.30;81.10;;;;;;5089659;28;20048;-76
2021/08/02 04:07:07;;;;;;;10.55;2.47;;;13.30;81.10;;;;;;5090190;28;20048;-75
2021/08/02 04:09:36;;;;;;;6.30;2.92;;;13.30;81.10;;;;;;5089336;28;20059;-76
2021/08/02 04:12:04;;;;;;;9.20;2.25;;;13.30;81.00;;;;;;5091222;28;20071;-75
2021/08/02 04:14:31;;;;;;;9.27;2.58;;;13.40;81.00;;;;;;5090147;28;20079;-76
2021/08/02 04:16:59;;;;;;;9.30;2.80;;;13.40;80.90;;;;;;5090280;28;20040;-76
2021/08/02 04:19:27;;;;;;;12.07;2.70;;;13.40;80.90;;;;;;5089945;28;20047;-76
2021/08/02 04:21:56;;;;;;;5.38;2.70;;;13.40;81.00;;;;;;5088742;28;20052;-76
2021/08/02 04:24:25;;;;;;;8.68;2.65;;;13.40;81.00;;;;;;5089246;28;20052;-75
2021/08/02 04:26:53;;;;;;;7.30;2.55;;;13.40;81.00;;;;;;5089485;28;20048;-75
2021/08/02 04:29:21;;;;;;;7.25;2.95;;;13.40;80.90;;;;;;5085152;28;20048;-75
2021/08/02 04:31:49;;;;;;;6.93;2.60;;;13.40;80.90;;;;;;5071219;28;20048;-75
2021/08/02 04:34:16;;;;;;;9.38;3.30;;;13.40;81.00;;;;;;5089622;28;20044;-75
2021/08/02 04:36:44;;;;;;;12.30;3.47;;;13.40;81.10;;;;;;5090552;28;20048;-75
2021/08/02 04:39:12;;;;;;;8.07;2.55;;;13.40;81.30;;;;;;5090109;28;20043;-75
2021/08/02 04:41:39;;;;;;;8.43;2.65;;;13.40;81.30;;;;;;5092921;28;20056;-75
2021/08/02 04:44:07;;;;;;;9.55;2.67;;;13.50;81.40;;;;;;5090403;28;20040;-75
2021/08/02 04:46:34;;;;;;;8.50;2.53;;;13.50;81.40;;;;;;5091868;28;20055;-76
2021/08/02 04:49:02;;;;;;;6.70;2.28;;;13.50;81.40;;;;;;5091139;28;20048;-75
2021/08/02 04:51:30;;;;;;;9.65;2.60;;;13.50;81.30;;;;;;5087986;28;20032;-75
2021/08/02 04:53:57;;;;;;;6.25;2.40;;;13.50;81.20;;;;;;5091375;28;20286;-75
2021/08/02 04:56:25;;;;;;;8.45;2.95;;;13.50;81.10;;;;;;5091367;28;20044;-75
2021/08/02 04:58:53;;;;;;;9.82;2.95;;;13.50;81.20;;;;;;5091843;28;20051;-75
2021/08/02 05:01:20;;;;;;;7.55;2.60;;;13.40;81.30;;;;;;5090581;28;20047;-75
2021/08/02 05:03:48;;;;;;;8.13;3.30;;;13.40;81.30;;;;;;5092826;28;20048;-75
2021/08/02 05:06:16;;;;;;;10.18;3.00;;;13.30;81.40;;;;;;5093655;28;20050;-75
2021/08/02 05:08:43;;;;;;;9.60;2.78;;;13.30;81.50;;;;;;5089534;28;20509;-75
2021/08/02 05:11:11;;;;;;;5.68;3.08;;;13.30;81.60;;;;;;5088058;28;20482;-75
2021/08/02 05:13:38;;;;;;;7.38;2.92;;;13.30;81.80;;;;;;5087888;28;20044;-75
2021/08/02 05:16:07;;;;;;;6.90;2.88;;;13.20;81.90;;;;;;5092149;28;20040;-75
2021/08/02 05:18:37;;;;;;;7.35;3.20;;;13.10;82.00;;;;;;5090603;28;20051;-75
2021/08/02 05:21:07;;;;;;;12.68;2.90;;;13.00;82.20;;;;;;5091558;28;20495;-75
2021/08/02 05:23:35;;;;;;;9.55;2.85;;;12.90;82.30;;;;;;5091279;28;20083;-75
2021/08/02 05:26:03;;;;;;;10.45;2.83;;;12.80;82.50;;;;;;5091314;28;20047;-74
2021/08/02 05:28:30;;;;;;;7.80;2.92;;;12.80;82.70;;;;;;5066535;28;20514;-75
2021/08/02 05:30:58;;;;;;;10.73;2.88;;;12.80;83.00;;;;;;5090463;28;20056;-75
2021/08/02 05:33:26;;;;;;;6.28;2.90;;;12.70;83.10;;;;;;5071560;28;20044;-75
2021/08/02 05:35:54;;;;;;;8.88;3.00;;;12.70;83.20;;;;;;5089745;28;20047;-75
2021/08/02 05:38:21;;;;;;;8.52;3.08;;;12.60;83.40;;;;;;5090523;28;20044;-75
2021/08/02 05:40:49;;;;;;;8.32;3.00;;;12.60;83.50;;;;;;5093213;28;20067;-75
2021/08/02 05:43:16;;;;;;;9.95;3.47;;;12.60;83.60;;;;;;5091634;28;20400;-74
2021/08/02 05:45:44;;;;;;;8.57;2.83;;;12.70;83.60;;;;;;5090872;28;20063;-75
2021/08/02 05:48:13;;;;;;;5.38;2.63;;;12.70;83.60;;;;;;5074810;28;20052;-75
2021/08/02 05:50:40;;;;;;;7.85;3.20;;;12.70;83.50;;;;;;5089651;28;20040;-75
2021/08/02 05:53:08;;;;;;;6.32;2.70;;;12.80;83.40;;;;;;5090825;28;20106;-75
2021/08/02 05:55:36;;;;;;;10.27;2.53;;;12.80;83.30;;;;;;5092637;28;20051;-75
2021/08/02 05:58:03;;;;;;;6.32;2.60;;;12.90;83.10;;;;;;5072090;28;20043;-75
2021/08/02 06:00:31;;;;;;;5.65;2.70;;;13.00;83.00;;;;;;5087321;28;20699;-74
2021/08/02 06:02:59;;;;;;;9.45;3.20;;;13.10;82.80;;;;;;5089614;28;20043;-75
2021/08/02 06:05:26;;;;;;;10.82;2.40;;;13.10;82.80;;;;;;5089110;28;20036;-75
2021/08/02 06:07:54;;;;;;;7.90;2.47;;;13.20;82.70;;;;;;5090362;28;20110;-75
2021/08/02 06:10:22;;;;;;;7.97;2.17;;;13.20;82.60;;;;;;5092347;28;20039;-75
2021/08/02 06:12:49;;;;;;;8.82;2.70;;;13.20;82.50;;;;;;5092437;28;20063;-75
2021/08/02 06:15:17;;;;;;;10.15;2.42;;;13.10;82.40;;;;;;5091103;28;20406;-76
2021/08/02 06:17:44;;;;;;;9.18;2.72;;;13.10;82.50;;;;;;5090026;28;20048;-76
2021/08/02 06:20:13;;;;;;;8.88;2.60;;;13.10;82.50;;;;;;5091511;28;20052;-76
2021/08/02 06:22:40;;;;;;;6.63;2.50;;;13.00;82.40;;;;;;5091713;28;20044;-76
2021/08/02 06:25:09;;;;;;;10.15;2.70;;;13.00;82.40;;;;;;5092424;28;20044;-76
2021/08/02 06:27:37;;;;;;;5.97;2.22;;;13.00;82.40;;;;;;5089354;28;20055;-76
2021/08/02 06:30:05;;;;;;;11.15;2.75;;;13.10;82.30;;;;;;5089848;28;20410;-76
2021/08/02 06:32:33;;;;;;;10.32;2.47;;;13.20;82.30;;;;;;5088536;28;20046;-75
2021/08/02 06:35:01;;;;;;;13.18;2.60;;;13.30;82.10;;;;;;5091308;28;20044;-75
2021/08/02 06:37:28;;;;;;;9.65;2.58;;;13.30;81.80;;;;;;5089120;28;20512;-75
2021/08/02 06:39:56;;;;;;;7.75;2.42;;;13.40;81.50;;;;;;5089094;28;20063;-75
2021/08/02 06:42:23;;;;;;;9.00;2.55;;;13.50;81.30;;;;;;5087341;28;20071;-76
2021/08/02 06:44:51;;;;;;;9.38;2.50;;;13.60;81.00;;;;;;5085329;28;20502;-75
2021/08/02 06:47:19;;;;;;;5.63;2.15;;;13.70;80.80;;;;;;5090962;28;20047;-76
2021/08/02 06:49:48;;;;;;;10.95;2.45;;;13.80;80.60;;;;;;5090084;28;20047;-76
2021/08/02 06:52:15;;;;;;;7.13;2.30;;;13.80;80.40;;;;;;5091014;28;20048;-74
2021/08/02 06:54:43;;;;;;;6.95;2.10;;;14.00;80.30;;;;;;5089039;28;20040;-76
2021/08/02 06:57:10;;;;;;;11.45;2.20;;;14.20;80.00;;;;;;5083827;28;20036;-76
2021/08/02 06:59:38;;;;;;;7.63;2.20;;;14.30;79.70;;;;;;5089016;28;20490;-74
2021/08/02 07:02:06;;;;;;;9.63;2.35;;;14.40;79.10;;;;;;5090086;28;20040;-75
2021/08/02 07:04:34;;;;;;;8.00;2.75;;;14.40;78.90;;;;;;5089870;28;20043;-76
2021/08/02 07:07:02;;;;;;;5.65;2.00;;;14.40;78.80;;;;;;5090277;28;20059;-75
2021/08/02 07:09:30;;;;;;;8.95;2.20;;;14.40;78.70;;;;;;5090476;28;20050;-75
2021/08/02 07:11:58;;;;;;;6.47;2.33;;;14.50;78.50;;;;;;5088478;28;20044;-76
2021/08/02 07:14:26;;;;;;;6.93;2.83;;;14.60;78.40;;;;;;5091482;28;20058;-76
2021/08/02 07:16:53;;;;;;;6.43;2.10;;;14.60;78.20;;;;;;5091234;28;20040;-74
2021/08/02 07:19:21;;;;;;;5.38;2.17;;;14.50;78.10;;;;;;5089054;28;20051;-74
2021/08/02 07:21:49;;;;;;;8.23;2.60;;;14.50;78.20;;;;;;5090142;28;20631;-77
2021/08/02 07:24:16;;;;;;;8.23;2.38;;;14.60;78.20;;;;;;5089725;28;20043;-72
2021/08/02 07:26:44;;;;;;;6.63;2.28;;;14.70;78.00;;;;;;5090237;28;20044;-72
2021/08/02 07:29:12;;;;;;;9.60;2.40;;;14.80;77.90;;;;;;5087819;28;20058;-72
2021/08/02 07:31:39;;;;;;;7.78;2.40;;;15.00;77.50;;;;;;5089777;28;20044;-73
2021/08/02 07:34:07;;;;;;;6.38;2.33;;;15.30;77.30;;;;;;5091187;28;20052;-73
2021/08/02 07:36:34;;;;;;;10.30;2.88;;;15.50;77.00;;;;;;5091089;28;20044;-73
2021/08/02 07:39:02;;;;;;;9.88;3.80;;;15.80;76.40;;;;;;5089391;28;20487;-72
2021/08/02 07:41:31;;;;;;;8.43;4.10;;;16.20;75.60;;;;;;5088994;28;20036;-73
2021/08/02 07:44:00;;;;;;;6.45;4.50;;;16.30;74.50;;;;;;5090682;28;20044;-73
2021/08/02 07:46:28;;;;;;;8.02;3.88;;;16.30;74.50;;;;;;5087685;28;20040;-73
2021/08/02 07:48:56;;;;;;;10.68;4.13;;;16.30;74.10;;;;;;5091512;28;20054;-73
2021/08/02 07:51:24;;;;;;;11.93;4.60;;;16.20;74.30;;;;;;5089596;28;20483;-73
2021/08/02 07:53:51;;;;;;;7.63;4.03;;;16.20;74.50;;;;;;5085854;28;20082;-72
2021/08/02 07:56:19;;;;;;;8.00;4.15;;;16.10;74.60;;;;;;5088510;28;20036;-73
2021/08/02 07:58:47;;;;;;;9.00;4.68;;;16.00;74.80;;;;;;5086837;28;20048;-73
2021/08/02 08:01:14;;;;;;;8.95;4.20;;;16.00;74.90;;;;;;5087737;28;20044;-72
2021/08/02 08:03:44;;;;;;;6.55;4.25;;;16.10;75.00;;;;;;5089618;28;20055;-72
2021/08/02 08:06:12;;;;;;;10.35;4.50;;;16.10;75.20;;;;;;5086234;28;20040;-72
2021/08/02 08:08:40;;;;;;;9.38;5.00;;;16.20;75.20;;;;;;5088671;28;20044;-73
2021/08/02 08:11:09;;;;;;;7.03;4.55;;;16.30;75.00;;;;;;5088327;28;20126;-72
2021/08/02 08:13:38;;;;;;;14.65;5.93;;;16.50;74.70;;;;;;5088757;28;20067;-72
2021/08/02 08:16:06;;;;;;;13.95;7.95;;;16.70;74.00;;;;;;5091190;28;20082;-73
2021/08/02 08:18:34;;;;;;;13.80;7.40;;;16.80;73.30;;;;;;5093134;28;20051;-73
2021/08/02 08:21:02;;;;;;;26.83;12.60;;;16.80;73.30;;;;;;5092037;28;20044;-73
2021/08/02 08:23:32;;;;;;;24.65;12.95;;;17.00;72.60;;;;;;5094431;28;20048;-73
2021/08/02 08:26:02;;;;;;;37.58;15.40;;;17.30;72.10;;;;;;5089310;28;20617;-74
2021/08/02 08:28:29;;;;;;;29.63;10.93;;;17.60;71.20;;;;;;5094005;28;20406;-72
2021/08/02 08:30:57;;;;;;;23.38;11.55;;;17.80;70.50;;;;;;5093762;28;20052;-73
2021/08/02 08:33:26;;;;;;;32.90;13.93;;;18.20;69.90;;;;;;5094680;28;20044;-73
2021/08/02 08:35:56;;;;;;;17.70;10.40;;;18.30;69.40;;;;;;5092561;28;20040;-73
2021/08/02 08:38:24;;;;;;;21.35;10.63;;;18.30;68.80;;;;;;5093931;28;20048;-73
2021/08/02 08:40:53;;;;;;;23.88;11.13;;;18.20;68.60;;;;;;5092067;28;20048;-72
2021/08/02 08:43:21;;;;;;;20.85;10.60;;;18.10;68.90;;;;;;5092360;28;20051;-73
2021/08/02 08:45:49;;;;;;;15.18;9.35;;;17.90;69.20;;;;;;5093048;28;20055;-73
2021/08/02 08:48:17;;;;;;;15.02;9.50;;;17.80;69.30;;;;;;5094670;28;20048;-73
2021/08/02 08:50:45;;;;;;;18.35;9.13;;;17.70;69.60;;;;;;5094494;28;20060;-72
2021/08/02 08:53:15;;;;;;;19.65;9.23;;;17.60;69.70;;;;;;5091264;28;20489;-73
2021/08/02 08:55:44;;;;;;;21.55;9.43;;;17.50;69.90;;;;;;5094469;28;20044;-72
2021/08/02 08:58:12;;;;;;;17.48;9.23;;;17.50;70.20;;;;;;5091220;28;20039;-73
2021/08/02 09:00:40;;;;;;;17.58;7.50;;;17.50;70.40;;;;;;5094233;28;20055;-72
2021/08/02 09:03:13;;;;;;;14.27;7.03;;;17.40;70.50;;;;;;5094039;28;20505;-72
2021/08/02 09:05:47;;;;;;;10.15;6.78;;;17.30;71.10;;;;;;5094450;28;20048;-73
2021/08/02 09:08:21;;;;;;;9.60;6.38;;;17.30;71.40;;;;;;5092168;28;20035;-72
2021/08/02 09:11:00;;;;;;;12.27;6.05;;;17.30;71.60;;;;;;5091179;28;20040;-73
2021/08/02 09:13:30;;;;;;;11.73;5.88;;;17.30;71.70;;;;;;5092995;28;20040;-73
2021/08/02 09:15:58;;;;;;;6.90;5.35;;;17.30;71.70;;;;;;5094350;28;20059;-72
2021/08/02 09:18:26;;;;;;;10.85;5.82;;;17.30;71.90;;;;;;5094428;28;20051;-73
2021/08/02 09:21:01;;;;;;;10.50;6.05;;;17.30;72.00;;;;;;5092472;28;20059;-73
2021/08/02 09:23:30;;;;;;;13.32;6.25;;;17.30;71.90;;;;;;5093083;28;20059;-72
2021/08/02 09:26:01;;;;;;;10.07;6.28;;;17.30;71.90;;;;;;5090691;28;20521;-74
2021/08/02 09:28:29;;;;;;;14.57;8.20;;;17.40;71.70;;;;;;5088207;28;20067;-73
2021/08/02 09:31:05;;;;;;;12.98;7.80;;;17.40;71.00;;;;;;5093790;28;20051;-74
2021/08/02 09:33:50;;;;;;;20.13;10.38;;;17.40;70.50;;;;;;5091677;28;20044;-73
2021/08/02 09:36:17;;;;;;;20.73;11.30;;;17.40;70.30;;;;;;5090698;28;20048;-73
2021/08/02 09:38:45;;;;;;;23.83;12.38;;;17.50;70.20;;;;;;5092964;28;20032;-74
2021/08/02 09:41:20;;;;;;;22.88;11.45;;;17.60;70.00;;;;;;5090987;28;20059;-73
2021/08/02 09:43:52;;;;;;;32.67;14.55;;;17.80;69.80;;;;;;5092999;28;20044;-73
2021/08/02 09:46:21;;;;;;;29.55;14.07;;;18.10;69.20;;;;;;5093594;28;20044;-73
2021/08/02 09:48:49;;;;;;;28.05;13.93;;;18.30;68.20;;;;;;5093026;28;20407;-73
2021/08/02 09:51:19;;;;;;;31.50;14.80;;;18.60;67.50;;;;;;5092625;28;20055;-73
2021/08/02 09:53:49;;;;;;;29.48;14.43;;;18.70;67.10;;;;;;5092621;28;20472;-73
2021/08/02 09:56:22;;;;;;;32.00;15.55;;;18.80;66.40;;;;;;5092658;28;20048;-73
2021/08/02 09:59:10;;;;;;;30.70;14.90;;;18.90;65.50;;;;;;5089527;28;20051;-73
2021/08/02 10:01:38;;;;;;;28.15;14.88;;;19.00;64.50;;;;;;5091878;28;20071;-73
2021/08/02 10:04:09;;;;;;;33.63;16.13;;;18.90;64.20;;;;;;5093237;28;20055;-73
2021/08/02 10:06:37;;;;;;;31.10;15.23;;;18.90;64.80;;;;;;5093458;28;20410;-73
2021/08/02 10:09:08;;;;;;;14.85;8.32;;;19.00;64.90;;;;;;5093427;28;20509;-72
2021/08/02 10:11:36;;;;;;;14.48;8.13;;;19.10;64.40;;;;;;5090579;28;20036;-73
2021/08/02 10:14:04;;;;;;;13.27;7.20;;;19.20;62.80;;;;;;5092578;28;20044;-73
2021/08/02 10:16:34;;;;;;;11.13;5.80;;;19.30;61.80;;;;;;5092709;28;20044;-73
2021/08/02 10:19:09;;;;;;;13.40;7.57;;;19.40;61.20;;;;;;5090956;28;20043;-72
2021/08/02 10:21:45;;;;;;;17.63;9.35;;;19.60;60.30;;;;;;5092774;28;20048;-72
2021/08/02 10:24:15;;;;;;;21.20;9.63;;;19.60;59.90;;;;;;5091419;28;20048;-71
2021/08/02 10:26:56;;;;;;;17.30;8.98;;;19.70;59.80;;;;;;5088367;28;20462;-73
2021/08/02 10:29:38;;;;;;;18.95;9.80;;;19.80;59.50;;;;;;5091447;28;20048;-72
2021/08/02 10:32:06;;;;;;;15.50;8.35;;;20.00;59.80;;;;;;5092431;28;20495;-74
2021/08/02 10:34:34;;;;;;;16.40;8.77;;;20.30;59.60;;;;;;5084877;28;20048;-73
2021/08/02 10:37:06;;;;;;;14.48;8.43;;;20.80;58.00;;;;;;5080525;28;20506;-73
2021/08/02 10:39:35;;;;;;;21.55;8.50;;;21.20;56.70;;;;;;5086730;28;20040;-74
2021/08/02 10:42:12;;;;;;;11.57;6.80;;;21.50;55.80;;;;;;5105655;28;20070;-73
2021/08/02 10:45:00;;;;;;;14.18;7.45;;;21.70;55.00;;;;;;5109484;27;20433;-74
2021/08/02 10:47:38;;;;;;;12.07;6.40;;;21.90;54.10;;;;;;5091610;28;20040;-74
2021/08/02 10:50:09;;;;;;;11.55;5.40;;;21.90;53.10;;;;;;5086963;28;20399;-74
2021/08/02 10:52:38;;;;;;;8.60;5.25;;;22.00;52.50;;;;;;5091320;28;20048;-76
2021/08/02 10:55:17;;;;;;;10.18;5.60;;;21.90;51.60;;;;;;5071179;28;20067;-73
2021/08/02 10:57:56;;;;;;;9.27;5.60;;;21.70;51.40;;;;;;5090720;28;20051;-74
2021/08/02 11:00:23;;;;;;;10.52;6.05;;;21.30;51.80;;;;;;5088185;28;20051;-74
2021/08/02 11:02:56;;;;;;;12.90;6.78;;;21.00;52.70;;;;;;5087778;28;20410;-75
2021/08/02 11:05:30;;;;;;;12.10;6.85;;;20.80;53.20;;;;;;5089309;28;20043;-74
2021/08/02 11:08:07;;;;;;;15.63;6.40;;;20.60;53.70;;;;;;5090950;28;20438;-75
2021/08/02 11:10:35;;;;;;;11.85;5.40;;;20.40;53.80;;;;;;5091023;28;20044;-73
2021/08/02 11:13:26;;;;;;;7.00;4.70;;;20.30;54.30;;;;;;5091221;28;20047;-73
2021/08/02 11:15:54;;;;;;;8.98;5.03;;;20.20;55.20;;;;;;5091078;28;20302;-73
2021/08/02 11:18:24;;;;;;;10.30;5.40;;;20.00;55.70;;;;;;5091350;28;20521;-73
2021/08/02 11:20:55;;;;;;;16.33;5.63;;;19.90;56.00;;;;;;5090394;28;20059;-73
2021/08/02 11:23:49;;;;;;;9.73;5.60;;;20.10;56.20;;;;;;5091706;28;20048;-73
2021/08/02 11:26:17;;;;;;;10.00;5.47;;;20.60;55.40;;;;;;5087581;28;20048;-78
2021/08/02 11:28:48;;;;;;;9.20;5.65;;;21.20;55.10;;;;;;5090780;28;20407;-73
2021/08/02 11:31:17;;;;;;;9.90;4.60;;;21.60;53.60;;;;;;5073850;28;20055;-74
2021/08/02 11:33:45;;;;;;;7.53;4.47;;;21.80;52.10;;;;;;5091841;28;20036;-75
2021/08/02 11:36:17;;;;;;;19.52;7.55;;;21.80;51.80;;;;;;5091374;28;20052;-74
2021/08/02 11:38:48;;;;;;;9.15;6.07;;;21.60;51.80;;;;;;5090309;28;20059;-74
2021/08/02 11:41:29;;;;;;;8.82;5.38;;;21.50;52.50;;;;;;5090162;28;20048;-74
2021/08/02 11:43:58;;;;;;;9.48;4.82;;;21.40;51.70;;;;;;5091398;28;20054;-74
2021/08/02 11:46:28;;;;;;;11.70;8.35;;;21.20;52.10;;;;;;5088805;28;20044;-73
2021/08/02 11:48:56;;;;;;;17.30;10.70;;;21.10;53.00;;;;;;5088516;28;20044;-73
2021/08/02 11:51:24;;;;;;;9.50;4.20;;;21.00;53.00;;;;;;5089726;28;20102;-77
2021/08/02 11:53:52;;;;;;;7.88;3.90;;;20.90;53.20;;;;;;5087358;28;20052;-74
2021/08/02 11:56:31;;;;;;;8.02;4.30;;;20.70;53.90;;;;;;5088482;28;20056;-74
2021/08/02 11:58:58;;;;;;;11.00;4.40;;;20.30;54.90;;;;;;5088305;28;20044;-73
2021/08/02 12:01:26;;;;;;;8.77;4.78;;;20.20;55.70;;;;;;5089335;28;20497;-74
2021/08/02 12:03:56;;;;;;;8.38;4.85;;;19.90;56.60;;;;;;5090341;28;20100;-73
2021/08/02 12:06:24;;;;;;;10.68;5.30;;;19.70;57.00;;;;;;5090489;28;20048;-73
2021/08/02 12:08:54;;;;;;;9.15;5.35;;;19.50;57.50;;;;;;5090479;28;20044;-73
2021/08/02 12:11:21;;;;;;;7.25;5.85;;;19.30;58.00;;;;;;5087969;28;20048;-73
2021/08/02 12:13:50;;;;;;;7.80;5.85;;;19.20;58.70;;;;;;5090363;28;20514;-74
2021/08/02 12:16:30;;;;;;;9.88;6.05;;;19.20;59.20;;;;;;5087685;28;20047;-74
2021/08/02 12:19:16;;;;;;;11.38;6.50;;;19.30;59.80;;;;;;5088620;28;20047;-74
2021/08/02 12:21:59;;;;;;;12.80;6.75;;;19.20;60.00;;;;;;5086769;28;20047;-74
2021/08/02 12:24:27;;;;;;;12.53;7.33;;;19.20;60.20;;;;;;5086027;28;20048;-74
2021/08/02 12:26:56;;;;;;;9.52;7.10;;;19.20;60.30;;;;;;5089258;28;20299;-74
2021/08/02 12:29:29;;;;;;;10.32;7.13;;;19.20;60.50;;;;;;5109587;28;20054;-74
2021/08/02 12:32:00;;;;;;;11.30;7.63;;;19.20;60.50;;;;;;5085843;28;20048;-71
2021/08/02 12:34:29;;;;;;;18.00;8.07;;;19.30;60.30;;;;;;5087328;28;20044;-72
2021/08/02 12:36:59;;;;;;;9.88;6.97;;;19.30;60.20;;;;;;5066939;28;20053;-72
2021/08/02 12:39:30;;;;;;;7.88;6.95;;;19.40;60.10;;;;;;5068845;28;20044;-72
2021/08/02 12:41:58;;;;;;;8.15;6.95;;;19.60;59.90;;;;;;5070046;28;20052;-72
2021/08/02 12:44:26;;;;;;;10.70;6.68;;;19.80;59.40;;;;;;5071237;28;20097;-73
2021/08/02 12:46:54;;;;;;;11.07;6.93;;;19.90;58.90;;;;;;5071144;28;20059;-73
2021/08/02 12:49:22;;;;;;;7.63;6.47;;;20.10;58.50;;;;;;5071058;28;20056;-73
2021/08/02 12:51:49;;;;;;;13.73;6.35;;;20.20;58.30;;;;;;5071156;28;20502;-73
2021/08/02 12:54:18;;;;;;;10.10;6.88;;;20.30;56.80;;;;;;5085267;28;20050;-73
2021/08/02 12:56:46;;;;;;;7.32;6.43;;;20.30;56.40;;;;;;5072681;28;20059;-73
2021/08/02 12:59:14;;;;;;;11.93;6.18;;;20.30;56.40;;;;;;5071418;28;20056;-73
2021/08/02 13:01:41;;;;;;;8.55;5.20;;;20.50;56.30;;;;;;5073370;28;20052;-73